createdAt,value
2018-09-27T00:00:45.632Z,1.33
2018-09-27T00:03:14.479Z,1.00
2018-09-27T00:05:43.125Z,1.43
2018-09-27T00:08:11.818Z,1.60
2018-09-27T00:10:40.497Z,0.80
2018-09-27T00:13:09.163Z,1.63
2018-09-27T00:15:37.808Z,1.80
2018-09-27T00:18:06.468Z,0.80
2018-09-27T00:20:35.133Z,1.03
2018-09-27T00:23:03.795Z,1.87
2018-09-27T00:25:33.392Z,0.80
2018-09-27T00:28:02.308Z,1.50
2018-09-27T00:30:30.944Z,1.37
2018-09-27T00:32:59.937Z,0.77
2018-09-27T00:35:28.588Z,0.87
2018-09-27T00:37:57.244Z,1.17
2018-09-27T00:40:25.942Z,0.77
2018-09-27T00:42:54.659Z,1.93
2018-09-27T00:45:23.296Z,1.43
2018-09-27T00:47:51.931Z,0.70
2018-09-27T00:50:20.733Z,1.67
2018-09-27T00:52:49.411Z,1.17
2018-09-27T00:55:18.146Z,1.17
2018-09-27T00:57:46.757Z,1.23
2018-09-27T01:00:15.402Z,1.23
2018-09-27T01:02:44.061Z,0.93
2018-09-27T01:05:12.755Z,1.50
2018-09-27T01:07:41.430Z,1.10
2018-09-27T01:10:10.090Z,1.40
2018-09-27T01:12:38.750Z,0.93
2018-09-27T01:15:07.604Z,0.80
2018-09-27T01:17:36.256Z,0.70
2018-09-27T01:20:05.305Z,0.80
2018-09-27T01:22:33.949Z,1.00
2018-09-27T01:25:02.583Z,1.20
2018-09-27T01:27:31.216Z,1.10
2018-09-27T01:29:59.876Z,0.80
2018-09-27T01:32:28.529Z,0.90
2018-09-27T01:34:57.185Z,1.20
2018-09-27T01:37:25.901Z,0.83
2018-09-27T01:39:54.559Z,0.80
2018-09-27T01:42:23.212Z,1.00
2018-09-27T01:44:51.861Z,1.43
2018-09-27T01:47:20.501Z,0.83
2018-09-27T01:49:49.148Z,0.70
2018-09-27T01:52:17.804Z,1.00
2018-09-27T01:54:46.437Z,1.10
2018-09-27T01:57:15.145Z,0.87
2018-09-27T01:59:43.788Z,1.07
2018-09-27T02:02:12.437Z,1.17
2018-09-27T02:04:41.276Z,1.10
2018-09-27T02:07:09.944Z,0.93
2018-09-27T02:09:38.575Z,0.80
2018-09-27T02:12:07.481Z,2.33
2018-09-27T02:14:36.128Z,0.70
2018-09-27T02:17:04.788Z,1.33
2018-09-27T02:19:33.436Z,0.80
2018-09-27T02:22:02.077Z,0.50
2018-09-27T02:24:30.724Z,0.97
2018-09-27T02:26:59.372Z,1.23
2018-09-27T02:29:28.016Z,1.43
2018-09-27T02:31:56.684Z,0.53
2018-09-27T02:34:25.357Z,1.13
2018-09-27T02:36:54.024Z,0.50
2018-09-27T02:39:22.690Z,1.13
2018-09-27T02:41:51.356Z,1.03
2018-09-27T02:44:20.020Z,0.73
2018-09-27T02:46:48.703Z,1.00
2018-09-27T02:49:17.385Z,0.73
2018-09-27T02:51:46.033Z,1.00
2018-09-27T02:54:14.665Z,0.90
2018-09-27T02:56:43.300Z,0.70
2018-09-27T02:59:11.992Z,1.07
2018-09-27T03:01:40.657Z,0.63
2018-09-27T03:04:09.319Z,0.60
2018-09-27T03:06:37.987Z,0.80
2018-09-27T03:09:09.670Z,0.87
2018-09-27T03:11:38.327Z,0.60
2018-09-27T03:14:07.028Z,0.80
2018-09-27T03:16:35.693Z,0.70
2018-09-27T03:19:04.360Z,0.63
2018-09-27T03:21:33.015Z,0.70
2018-09-27T03:24:01.688Z,1.67
2018-09-27T03:26:30.320Z,0.50
2018-09-27T03:28:59.021Z,0.50
2018-09-27T03:31:27.681Z,0.50
2018-09-27T03:33:56.309Z,0.83
2018-09-27T03:36:24.949Z,1.20
2018-09-27T03:38:53.853Z,0.90
2018-09-27T03:41:22.481Z,0.63
2018-09-27T03:43:51.144Z,1.43
2018-09-27T03:46:19.792Z,1.23
2018-09-27T03:48:48.433Z,0.50
2018-09-27T03:51:17.092Z,0.83
2018-09-27T03:53:45.907Z,1.00
2018-09-27T03:56:14.584Z,0.80
2018-09-27T03:58:43.224Z,0.43
2018-09-27T04:01:11.917Z,0.80
2018-09-27T04:03:40.577Z,0.70
2018-09-27T04:06:09.226Z,0.40
2018-09-27T04:08:37.916Z,0.30
2018-09-27T04:11:06.964Z,0.50
2018-09-27T04:13:35.621Z,0.30
2018-09-27T04:16:04.285Z,0.50
2018-09-27T04:18:32.976Z,0.47
2018-09-27T04:21:01.692Z,0.90
2018-09-27T04:23:30.356Z,0.63
2018-09-27T04:25:59.009Z,0.50
2018-09-27T04:28:27.673Z,0.40
2018-09-27T04:30:56.336Z,0.60
2018-09-27T04:33:24.977Z,0.53
2018-09-27T04:35:53.622Z,0.60
2018-09-27T04:38:22.264Z,0.97
2018-09-27T04:40:50.949Z,0.83
2018-09-27T04:43:19.584Z,0.67
2018-09-27T04:45:48.304Z,0.70
2018-09-27T04:48:16.924Z,0.50
2018-09-27T04:50:45.564Z,0.73
2018-09-27T04:53:14.200Z,1.70
2018-09-27T04:55:42.849Z,0.73
2018-09-27T04:58:11.501Z,0.40
2018-09-27T05:00:40.206Z,0.90
2018-09-27T05:03:08.873Z,0.70
2018-09-27T05:05:37.516Z,0.67
2018-09-27T05:08:06.184Z,1.07
2018-09-27T05:10:34.873Z,0.97
2018-09-27T05:13:03.534Z,0.67
2018-09-27T05:15:32.198Z,0.30
2018-09-27T05:18:00.858Z,0.80
2018-09-27T05:20:29.549Z,0.70
2018-09-27T05:22:58.225Z,1.13
2018-09-27T05:25:26.966Z,0.83
2018-09-27T05:27:55.640Z,0.77
2018-09-27T05:30:24.297Z,0.50
2018-09-27T05:32:52.968Z,0.87
2018-09-27T05:35:21.705Z,0.90
2018-09-27T05:37:50.718Z,1.10
2018-09-27T05:40:19.393Z,0.80
2018-09-27T05:42:48.027Z,0.53
2018-09-27T05:45:16.660Z,0.40
2018-09-27T05:47:45.292Z,0.97
2018-09-27T05:50:13.952Z,0.60
2018-09-27T05:52:42.617Z,0.67
2018-09-27T05:55:11.272Z,0.70
2018-09-27T05:57:39.958Z,1.23
2018-09-27T06:00:08.600Z,0.47
2018-09-27T06:02:37.245Z,0.30
2018-09-27T06:05:06.394Z,0.60
2018-09-27T06:07:35.259Z,0.33
2018-09-27T06:10:03.955Z,1.27
2018-09-27T06:12:32.596Z,0.43
2018-09-27T06:15:01.264Z,0.50
2018-09-27T06:17:29.935Z,0.60
2018-09-27T06:19:58.605Z,0.70
2018-09-27T06:22:27.256Z,0.43
2018-09-27T06:24:55.900Z,0.80
2018-09-27T06:27:24.567Z,0.50
2018-09-27T06:29:53.208Z,0.37
2018-09-27T06:32:21.900Z,0.57
2018-09-27T06:34:50.542Z,0.33
2018-09-27T06:37:19.188Z,0.90
2018-09-27T06:39:47.844Z,0.63
2018-09-27T06:42:16.492Z,0.43
2018-09-27T06:44:45.219Z,0.60
2018-09-27T06:47:13.826Z,0.47
2018-09-27T06:49:42.491Z,0.40
2018-09-27T06:52:11.157Z,0.40
2018-09-27T06:54:39.874Z,0.73
2018-09-27T06:57:08.500Z,0.40
2018-09-27T06:59:37.133Z,0.50
2018-09-27T07:02:05.862Z,0.50
2018-09-27T07:04:34.537Z,0.50
2018-09-27T07:07:03.185Z,0.50
2018-09-27T07:12:14.824Z,0.70
2018-09-27T07:14:43.488Z,0.50
2018-09-27T07:17:12.124Z,0.50
2018-09-27T07:19:40.778Z,0.50
2018-09-27T07:22:09.416Z,0.80
2018-09-27T07:24:38.062Z,0.70
2018-09-27T07:27:06.733Z,0.50
2018-09-27T07:29:35.384Z,1.03
2018-09-27T07:32:04.018Z,1.30
2018-09-27T07:34:32.661Z,1.43
2018-09-27T07:37:01.300Z,0.80
2018-09-27T07:39:29.968Z,1.60
2018-09-27T07:41:58.596Z,0.70
2018-09-27T07:44:27.351Z,1.07
2018-09-27T07:46:55.912Z,0.80
2018-09-27T07:49:24.574Z,0.90
2018-09-27T07:51:53.227Z,1.10
2018-09-27T07:54:22.012Z,0.77
2018-09-27T07:56:50.557Z,1.37
2018-09-27T07:59:19.213Z,0.67
2018-09-27T08:01:47.876Z,1.10
2018-09-27T08:04:16.685Z,1.03
2018-09-27T08:06:45.217Z,1.10
2018-09-27T08:09:13.921Z,1.57
2018-09-27T08:11:42.665Z,1.03
2018-09-27T08:14:11.393Z,0.73
2018-09-27T08:16:40.141Z,0.60
2018-09-27T08:19:08.800Z,1.20
2018-09-27T08:21:37.434Z,1.00
2018-09-27T08:24:06.538Z,1.03
2018-09-27T08:26:35.166Z,1.40
2018-09-27T08:29:03.857Z,0.77
2018-09-27T08:31:32.521Z,1.07
2018-09-27T08:34:01.171Z,1.03
2018-09-27T08:36:30.185Z,1.00
2018-09-27T08:38:58.874Z,1.00
2018-09-27T08:41:27.532Z,1.23
2018-09-27T08:43:56.180Z,1.60
2018-09-27T08:46:24.817Z,1.10
2018-09-27T08:48:53.449Z,1.17
2018-09-27T08:51:22.146Z,0.93
2018-09-27T08:53:50.804Z,0.70
2018-09-27T08:56:19.465Z,1.20
2018-09-27T08:58:48.108Z,0.93
2018-09-27T09:01:16.766Z,1.40
2018-09-27T09:03:45.505Z,1.80
2018-09-27T09:06:14.096Z,1.07
2018-09-27T09:08:42.727Z,0.80
2018-09-27T09:11:11.420Z,0.80
2018-09-27T09:13:40.152Z,1.30
2018-09-27T09:16:08.793Z,1.47
2018-09-27T09:18:37.457Z,1.17
2018-09-27T09:21:06.513Z,1.37
2018-09-27T09:23:35.501Z,1.53
2018-09-27T09:26:04.222Z,1.00
2018-09-27T09:28:32.887Z,2.83
2018-09-27T09:31:01.864Z,0.93
2018-09-27T09:33:30.570Z,1.77
2018-09-27T09:35:59.280Z,0.93
2018-09-27T09:38:28.244Z,1.00
2018-09-27T09:40:56.937Z,1.10
2018-09-27T09:43:25.602Z,1.07
2018-09-27T09:45:54.312Z,0.97
2018-09-27T09:48:22.965Z,1.17
2018-09-27T09:50:51.609Z,0.83
2018-09-27T09:53:20.260Z,1.53
2018-09-27T09:55:48.923Z,0.87
2018-09-27T09:58:17.680Z,1.63
2018-09-27T10:00:46.340Z,1.07
2018-09-27T10:03:14.990Z,0.90
2018-09-27T10:05:43.641Z,1.20
2018-09-27T10:08:12.308Z,0.90
2018-09-27T10:10:40.971Z,1.90
2018-09-27T10:13:09.624Z,1.23
2018-09-27T10:15:38.318Z,0.97
2018-09-27T10:18:07.060Z,0.80
2018-09-27T10:20:35.696Z,1.57
2018-09-27T10:23:04.332Z,0.57
2018-09-27T10:25:33.019Z,0.80
2018-09-27T10:28:01.643Z,1.13
2018-09-27T10:30:30.292Z,1.53
2018-09-27T10:32:59.130Z,1.47
2018-09-27T10:35:27.777Z,0.70
2018-09-27T10:37:56.445Z,1.80
2018-09-27T10:40:25.100Z,1.40
2018-09-27T10:42:53.729Z,0.90
2018-09-27T10:45:22.437Z,0.83
2018-09-27T10:47:51.081Z,0.90
2018-09-27T10:50:19.828Z,1.17
2018-09-27T10:52:48.492Z,0.90
2018-09-27T10:55:17.141Z,1.50
2018-09-27T10:57:45.796Z,1.10
2018-09-27T11:00:28.724Z,1.20
2018-09-27T11:02:57.372Z,1.33
2018-09-27T11:05:26.009Z,1.90
2018-09-27T11:07:54.681Z,1.10
2018-09-27T11:10:23.328Z,0.83
2018-09-27T11:12:52.017Z,1.10
2018-09-27T11:15:20.677Z,1.27
2018-09-27T11:17:49.352Z,0.63
2018-09-27T11:20:18.166Z,1.23
2018-09-27T11:22:46.834Z,1.10
2018-09-27T11:25:15.477Z,0.83
2018-09-27T11:27:44.481Z,1.40
2018-09-27T11:30:18.016Z,0.83
2018-09-27T11:32:47.030Z,0.90
2018-09-27T11:35:15.668Z,1.10
2018-09-27T11:37:44.304Z,1.73
2018-09-27T11:40:13.061Z,1.23
2018-09-27T11:42:41.734Z,0.57
2018-09-27T11:45:10.544Z,1.20
2018-09-27T11:47:39.205Z,1.33
2018-09-27T11:50:07.964Z,0.80
2018-09-27T11:52:36.593Z,0.97
2018-09-27T11:55:05.259Z,1.00
2018-09-27T11:57:33.961Z,0.63
2018-09-27T12:00:02.656Z,0.97
2018-09-27T12:02:31.352Z,1.03
2018-09-27T12:05:00.021Z,1.47
2018-09-27T12:07:28.709Z,0.60
2018-09-27T12:09:57.376Z,1.07
2018-09-27T12:12:26.037Z,0.90
2018-09-27T12:14:55.596Z,1.00
2018-09-27T12:17:24.402Z,1.27
2018-09-27T12:19:53.069Z,1.57
2018-09-27T12:22:21.757Z,1.07
2018-09-27T12:24:50.428Z,0.90
2018-09-27T12:27:33.558Z,0.70
2018-09-27T12:30:02.236Z,1.13
2018-09-27T12:32:30.933Z,1.87
2018-09-27T12:34:59.601Z,1.33
2018-09-27T12:37:28.249Z,1.37
2018-09-27T12:39:56.892Z,1.33
2018-09-27T12:42:25.554Z,1.00
2018-09-27T12:44:54.262Z,0.50
2018-09-27T12:47:22.918Z,1.13
2018-09-27T12:49:51.581Z,1.23
2018-09-27T12:52:20.648Z,0.70
2018-09-27T12:54:49.221Z,1.13
2018-09-27T12:57:17.943Z,1.27
2018-09-27T12:59:46.568Z,0.63
2018-09-27T13:02:15.239Z,1.30
2018-09-27T13:04:43.908Z,1.20
2018-09-27T13:07:12.553Z,1.13
2018-09-27T13:09:41.652Z,1.37
2018-09-27T13:12:10.695Z,0.97
2018-09-27T13:14:39.350Z,1.03
2018-09-27T13:17:08.220Z,1.37
2018-09-27T13:19:36.952Z,0.90
2018-09-27T13:22:05.533Z,2.13
2018-09-27T13:24:34.310Z,1.40
2018-09-27T13:27:02.943Z,0.97
2018-09-27T13:29:31.528Z,1.27
2018-09-27T13:32:00.357Z,1.07
2018-09-27T13:34:29.029Z,1.37
2018-09-27T13:36:57.730Z,1.13
2018-09-27T13:39:26.369Z,1.00
2018-09-27T13:41:55.004Z,1.07
2018-09-27T13:44:23.660Z,1.00
2018-09-27T13:46:52.320Z,0.97
2018-09-27T13:49:21.024Z,1.10
2018-09-27T13:51:49.691Z,0.97
2018-09-27T13:54:18.322Z,0.67
2018-09-27T13:56:47.040Z,1.30
2018-09-27T13:59:15.628Z,1.13
2018-09-27T14:01:44.281Z,0.90
2018-09-27T14:04:12.972Z,0.90
2018-09-27T14:06:41.616Z,1.20
2018-09-27T14:09:10.753Z,0.90
2018-09-27T14:11:39.934Z,0.80
2018-09-27T14:14:08.868Z,1.10
2018-09-27T14:16:37.520Z,0.77
2018-09-27T14:19:06.175Z,2.10
2018-09-27T14:21:34.837Z,1.97
2018-09-27T14:24:03.488Z,1.07
2018-09-27T14:26:32.135Z,1.10
2018-09-27T14:29:00.981Z,1.30
2018-09-27T14:31:29.971Z,1.00
2018-09-27T14:33:58.963Z,0.97
2018-09-27T14:36:27.638Z,0.80
2018-09-27T14:38:56.304Z,1.27
2018-09-27T14:41:24.953Z,1.30
2018-09-27T14:43:53.614Z,0.97
2018-09-27T14:46:22.262Z,1.00
2018-09-27T14:48:50.920Z,1.00
2018-09-27T14:51:19.564Z,0.70
2018-09-27T14:53:48.253Z,1.23
2018-09-27T14:56:16.994Z,1.10
2018-09-27T14:58:45.631Z,0.97
2018-09-27T15:01:14.252Z,1.23
2018-09-27T15:03:42.912Z,0.83
2018-09-27T15:06:11.590Z,2.10
2018-09-27T15:08:40.232Z,1.00
2018-09-27T15:11:08.925Z,0.67
2018-09-27T15:13:37.585Z,0.93
2018-09-27T15:16:06.224Z,0.83
2018-09-27T15:18:34.877Z,0.90
2018-09-27T15:21:03.536Z,0.70
2018-09-27T15:23:32.304Z,1.60
2018-09-27T15:26:00.893Z,2.43
2018-09-27T15:28:29.542Z,0.63
2018-09-27T15:30:58.420Z,0.87
2018-09-27T15:33:27.069Z,1.10
2018-09-27T15:35:55.700Z,0.87
2018-09-27T15:38:24.357Z,0.70
2018-09-27T15:40:53.020Z,0.70
2018-09-27T15:43:21.709Z,1.27
2018-09-27T15:45:50.543Z,1.07
2018-09-27T15:48:19.232Z,1.13
2018-09-27T15:50:47.889Z,1.40
2018-09-27T15:53:16.527Z,1.10
2018-09-27T15:55:45.166Z,1.03
2018-09-27T15:58:13.832Z,0.80
2018-09-27T16:00:42.472Z,1.17
2018-09-27T16:03:11.128Z,0.87
2018-09-27T16:05:39.782Z,0.77
2018-09-27T16:08:08.424Z,1.00
2018-09-27T16:10:37.089Z,1.20
2018-09-27T16:13:05.737Z,1.30
2018-09-27T16:15:34.449Z,0.80
2018-09-27T16:18:03.157Z,0.90
2018-09-27T16:20:31.816Z,2.13
2018-09-27T16:23:00.452Z,1.33
2018-09-27T16:25:29.725Z,0.93
2018-09-27T16:27:58.368Z,1.70
2018-09-27T16:30:27.041Z,1.17
2018-09-27T16:32:55.672Z,0.73
2018-09-27T16:35:24.565Z,1.17
2018-09-27T16:37:53.344Z,0.60
2018-09-27T16:40:22.086Z,1.07
2018-09-27T16:42:50.703Z,0.60
2018-09-27T16:45:19.400Z,0.70
2018-09-27T16:47:48.139Z,1.33
2018-09-27T16:50:16.748Z,1.30
2018-09-27T16:52:45.388Z,1.50
2018-09-27T16:55:14.083Z,1.10
2018-09-27T16:57:42.756Z,1.10
2018-09-27T17:00:11.399Z,1.30
2018-09-27T17:02:40.100Z,1.57
2018-09-27T17:05:08.772Z,1.40
2018-09-27T17:07:37.478Z,0.97
2018-09-27T17:10:06.311Z,1.37
2018-09-27T17:12:34.952Z,1.10
2018-09-27T17:15:03.605Z,1.33
2018-09-27T17:17:32.298Z,1.47
2018-09-27T17:20:00.969Z,2.43
2018-09-27T17:22:29.668Z,1.00
2018-09-27T17:24:58.286Z,1.47
2018-09-27T17:27:26.908Z,2.00
2018-09-27T17:29:55.552Z,3.50
2018-09-27T17:32:24.213Z,1.63
2018-09-27T17:34:52.952Z,1.30
2018-09-27T17:37:21.609Z,2.30
2018-09-27T17:39:50.261Z,1.77
2018-09-27T17:42:18.925Z,1.93
2018-09-27T17:44:47.604Z,1.73
2018-09-27T17:47:16.300Z,1.83
2018-09-27T17:49:45.023Z,2.07
2018-09-27T17:52:13.609Z,3.47
2018-09-27T17:54:42.284Z,1.47
2018-09-27T17:57:11.126Z,1.60
2018-09-27T17:59:39.787Z,2.93
2018-09-27T18:02:08.466Z,1.60
2018-09-27T18:04:37.214Z,2.40
2018-09-27T18:07:05.816Z,2.37
2018-09-27T18:09:34.495Z,1.60
2018-09-27T18:12:03.164Z,2.40
2018-09-27T18:14:31.833Z,3.77
2018-09-27T18:17:00.521Z,2.63
2018-09-27T18:19:29.187Z,3.20
2018-09-27T18:21:57.837Z,2.53
2018-09-27T18:24:26.514Z,2.57
2018-09-27T18:26:55.206Z,2.50
2018-09-27T18:29:23.900Z,2.47
2018-09-27T18:31:52.568Z,2.47
2018-09-27T18:34:21.503Z,2.83
2018-09-27T18:36:50.172Z,2.67
2018-09-27T18:39:18.816Z,2.37
2018-09-27T18:41:47.469Z,2.57
2018-09-27T18:44:16.177Z,2.17
2018-09-27T18:46:44.844Z,2.60
2018-09-27T18:49:13.504Z,2.37
2018-09-27T18:51:42.244Z,2.00
2018-09-27T18:54:10.880Z,2.63
2018-09-27T18:56:39.506Z,3.13
2018-09-27T18:59:08.310Z,2.33
2018-09-27T19:01:36.960Z,2.27
2018-09-27T19:04:05.624Z,2.67
2018-09-27T19:06:34.296Z,2.90
2018-09-27T19:09:03.025Z,3.60
2018-09-27T19:11:31.667Z,2.27
2018-09-27T19:14:00.328Z,2.00
2018-09-27T19:16:28.993Z,2.83
2018-09-27T19:18:57.648Z,2.07
2018-09-27T19:21:27.403Z,2.87
2018-09-27T19:23:56.074Z,4.27
2018-09-27T19:26:24.720Z,2.40
2018-09-27T19:28:53.456Z,2.40
2018-09-27T19:31:22.116Z,2.27
2018-09-27T19:33:51.127Z,2.43
2018-09-27T19:36:19.779Z,2.40
2018-09-27T19:38:48.440Z,3.77
2018-09-27T19:41:17.068Z,2.67
2018-09-27T19:43:45.713Z,1.97
2018-09-27T19:46:14.360Z,2.40
2018-09-27T19:48:43.041Z,1.77
2018-09-27T19:51:11.916Z,2.57
2018-09-27T19:53:40.551Z,2.30
2018-09-27T19:56:09.999Z,2.27
2018-09-27T19:58:38.628Z,1.67
2018-09-27T20:01:07.656Z,2.10
2018-09-27T20:03:36.345Z,2.43
2018-09-27T20:06:05.281Z,2.10
2018-09-27T20:08:33.946Z,3.00
2018-09-27T20:11:02.584Z,1.50
2018-09-27T20:13:31.292Z,1.70
2018-09-27T20:15:59.978Z,2.37
2018-09-27T20:18:28.616Z,3.30
2018-09-27T20:20:57.279Z,2.80
2018-09-27T20:23:26.105Z,2.70
2018-09-27T20:25:54.736Z,2.00
2018-09-27T20:28:23.403Z,1.67
2018-09-27T20:30:52.064Z,1.87
2018-09-27T20:33:20.724Z,2.33
2018-09-27T20:35:49.360Z,2.50
2018-09-27T20:38:18.041Z,1.90
2018-09-27T20:40:46.740Z,1.80
2018-09-27T20:43:15.384Z,2.30
2018-09-27T20:45:44.045Z,2.17
2018-09-27T20:48:12.716Z,1.73
2018-09-27T20:50:41.401Z,2.60
2018-09-27T20:53:10.089Z,2.33
2018-09-27T20:55:38.761Z,2.27
2018-09-27T20:58:07.424Z,3.33
2018-09-27T21:00:36.081Z,1.30
2018-09-27T21:03:05.174Z,2.13
2018-09-27T21:05:33.817Z,1.70
2018-09-27T21:08:02.708Z,2.37
2018-09-27T21:10:31.700Z,1.40
2018-09-27T21:13:00.363Z,1.40
2018-09-27T21:15:29.007Z,2.57
2018-09-27T21:17:57.756Z,2.17
2018-09-27T21:20:26.400Z,2.07
2018-09-27T21:22:55.090Z,1.90
2018-09-27T21:25:23.738Z,1.80
2018-09-27T21:27:52.370Z,3.70
2018-09-27T21:30:21.036Z,1.57
2018-09-27T21:32:49.692Z,1.77
2018-09-27T21:35:18.349Z,1.70
2018-09-27T21:37:47.045Z,1.40
2018-09-27T21:40:15.704Z,1.40
2018-09-27T21:42:44.364Z,1.73
2018-09-27T21:45:13.016Z,2.10
2018-09-27T21:47:41.715Z,1.60
2018-09-27T21:50:10.456Z,1.20
2018-09-27T21:52:39.372Z,2.00
2018-09-27T21:55:08.081Z,1.57
2018-09-27T21:57:36.994Z,1.70
2018-09-27T22:00:07.136Z,1.33
2018-09-27T22:02:35.800Z,2.33
2018-09-27T22:05:04.480Z,1.73
2018-09-27T22:07:33.150Z,1.77
2018-09-27T22:10:01.802Z,1.60
2018-09-27T22:12:30.497Z,1.60
2018-09-27T22:14:59.160Z,1.33
2018-09-27T22:17:27.804Z,1.60
2018-09-27T22:19:56.448Z,1.27
2018-09-27T22:22:25.109Z,1.33
2018-09-27T22:24:53.753Z,2.27
2018-09-27T22:27:22.392Z,1.37
2018-09-27T22:29:51.053Z,1.40
2018-09-27T22:32:19.721Z,1.20
2018-09-27T22:34:48.389Z,1.50
2018-09-27T22:37:17.025Z,1.20
2018-09-27T22:39:45.684Z,1.73
2018-09-27T22:42:14.337Z,1.10
2018-09-27T22:44:43.331Z,1.17
2018-09-27T22:47:12.004Z,0.73
2018-09-27T22:49:40.649Z,0.90
2018-09-27T22:52:09.305Z,1.10
2018-09-27T22:54:37.953Z,1.20
2018-09-27T22:57:06.592Z,1.13
2018-09-27T22:59:35.276Z,1.57
2018-09-27T23:02:03.952Z,3.03
2018-09-27T23:04:32.616Z,1.07
2018-09-27T23:07:01.284Z,0.77
2018-09-27T23:09:29.942Z,1.10
2018-09-27T23:11:58.597Z,0.80
2018-09-27T23:14:27.260Z,0.97
2018-09-27T23:16:55.911Z,0.70
2018-09-27T23:19:24.553Z,0.60
2018-09-27T23:21:53.224Z,0.90
2018-09-27T23:24:22.115Z,1.03
2018-09-27T23:26:50.792Z,1.00
2018-09-27T23:29:19.432Z,0.83
2018-09-27T23:31:48.104Z,1.53
2018-09-27T23:34:16.761Z,0.87
2018-09-27T23:36:45.400Z,0.77
2018-09-27T23:39:14.094Z,1.00
2018-09-27T23:41:42.748Z,0.80
2018-09-27T23:44:11.395Z,1.27
2018-09-27T23:46:40.058Z,0.90
2018-09-27T23:49:08.728Z,1.07
2018-09-27T23:51:37.391Z,0.60
2018-09-27T23:54:06.501Z,1.20
2018-09-27T23:56:35.149Z,0.93
2018-09-27T23:59:03.785Z,0.87
